createdAt,value
2022-07-31T00:02:08.040Z,27.15
2022-07-31T00:04:34.589Z,28.75
2022-07-31T00:07:01.423Z,20.65
2022-07-31T00:09:52.541Z,21.10
2022-07-31T00:12:38.420Z,19.63
2022-07-31T00:15:06.983Z,21.17
2022-07-31T00:17:34.030Z,24.77
2022-07-31T00:20:00.470Z,21.58
2022-07-31T00:22:26.867Z,22.98
2022-07-31T00:24:53.333Z,28.63
2022-07-31T00:27:19.783Z,29.77
2022-07-31T00:29:46.497Z,24.92
2022-07-31T00:32:13.061Z,26.35
2022-07-31T00:34:39.508Z,26.95
2022-07-31T00:37:06.332Z,30.35
2022-07-31T00:39:33.121Z,25.40
2022-07-31T00:41:59.634Z,26.50
2022-07-31T00:44:26.193Z,29.90
2022-07-31T00:46:52.691Z,29.88
2022-07-31T00:49:19.937Z,30.85
2022-07-31T00:51:46.466Z,26.13
2022-07-31T00:54:16.281Z,27.00
2022-07-31T00:56:50.048Z,25.92
2022-07-31T00:59:16.811Z,25.88
2022-07-31T01:01:51.146Z,31.23
2022-07-31T01:04:19.713Z,27.67
2022-07-31T01:06:47.531Z,22.77
2022-07-31T01:09:17.338Z,24.00
2022-07-31T01:11:50.585Z,23.48
2022-07-31T01:14:20.226Z,22.75
2022-07-31T01:16:49.238Z,27.05
2022-07-31T01:19:37.903Z,19.38
2022-07-31T01:22:43.967Z,18.95
2022-07-31T01:25:10.338Z,18.73
2022-07-31T01:27:56.288Z,18.45
2022-07-31T01:30:30.466Z,19.30
2022-07-31T01:33:02.338Z,28.70
2022-07-31T01:35:35.058Z,22.90
2022-07-31T01:38:13.104Z,25.63
2022-07-31T01:40:46.553Z,23.15
2022-07-31T01:43:19.046Z,29.43
2022-07-31T01:45:48.007Z,24.13
2022-07-31T01:48:17.147Z,23.70
2022-07-31T01:50:47.154Z,24.30
2022-07-31T01:53:20.156Z,25.75
2022-07-31T01:56:00.896Z,26.08
2022-07-31T01:58:34.813Z,25.30
2022-07-31T02:01:03.644Z,25.40
2022-07-31T02:03:43.420Z,24.08
2022-07-31T02:06:13.400Z,22.60
2022-07-31T02:08:40.504Z,23.75
2022-07-31T02:11:08.539Z,25.55
2022-07-31T02:13:37.353Z,22.75
2022-07-31T02:16:05.578Z,23.40
2022-07-31T02:18:34.074Z,20.80
2022-07-31T02:21:00.640Z,24.15
2022-07-31T02:23:27.075Z,22.13
2022-07-31T02:25:54.473Z,23.27
2022-07-31T02:28:22.184Z,21.98
2022-07-31T02:30:49.771Z,23.30
2022-07-31T02:33:23.113Z,24.20
2022-07-31T02:35:51.558Z,24.90
2022-07-31T02:38:23.395Z,23.75
2022-07-31T02:40:53.210Z,23.83
2022-07-31T02:43:21.093Z,22.20
2022-07-31T02:45:48.366Z,23.42
2022-07-31T02:48:15.407Z,23.58
2022-07-31T02:50:42.970Z,25.08
2022-07-31T02:53:09.756Z,26.20
2022-07-31T02:55:36.871Z,25.15
2022-07-31T02:58:06.175Z,24.35
2022-07-31T03:00:32.982Z,24.85
2022-07-31T03:02:59.415Z,23.02
2022-07-31T03:05:25.912Z,25.45
2022-07-31T03:07:52.585Z,22.77
2022-07-31T03:10:19.098Z,23.27
2022-07-31T03:12:52.670Z,23.20
2022-07-31T03:15:22.331Z,23.75
2022-07-31T03:17:49.926Z,20.48
2022-07-31T03:20:17.124Z,19.70
2022-07-31T03:22:44.330Z,20.42
2022-07-31T03:25:11.482Z,20.42
2022-07-31T03:27:52.501Z,22.48
2022-07-31T03:30:26.393Z,19.45
2022-07-31T03:32:54.272Z,20.05
2022-07-31T03:35:21.124Z,20.85
2022-07-31T03:37:47.560Z,20.95
2022-07-31T03:40:14.097Z,18.58
2022-07-31T03:42:41.858Z,18.67
2022-07-31T03:45:10.814Z,20.35
2022-07-31T03:47:37.736Z,19.42
2022-07-31T03:50:04.725Z,19.15
2022-07-31T03:52:31.457Z,19.42
2022-07-31T03:54:57.915Z,19.73
2022-07-31T03:57:30.249Z,18.85
2022-07-31T04:00:02.334Z,20.08
2022-07-31T04:02:29.755Z,18.42
2022-07-31T04:04:57.307Z,19.60
2022-07-31T04:07:24.495Z,21.08
2022-07-31T04:09:51.438Z,20.05
2022-07-31T04:12:17.921Z,20.40
2022-07-31T04:14:44.620Z,20.55
2022-07-31T04:17:12.111Z,20.00
2022-07-31T04:19:39.273Z,21.80
2022-07-31T04:22:06.854Z,21.73
2022-07-31T04:24:34.047Z,21.08
2022-07-31T04:27:00.743Z,22.00
2022-07-31T04:29:29.825Z,23.17
2022-07-31T04:31:57.182Z,21.48
2022-07-31T04:34:23.646Z,21.58
2022-07-31T04:36:50.193Z,22.00
2022-07-31T04:39:16.828Z,21.92
2022-07-31T04:41:43.283Z,23.25
2022-07-31T04:44:10.447Z,21.20
2022-07-31T04:46:37.153Z,23.88
2022-07-31T04:49:03.755Z,18.42
2022-07-31T04:51:30.339Z,21.98
2022-07-31T04:53:56.767Z,19.85
2022-07-31T04:56:42.087Z,20.05
2022-07-31T04:59:16.277Z,18.88
2022-07-31T05:01:43.804Z,21.02
2022-07-31T05:04:10.974Z,18.42
2022-07-31T05:06:43.617Z,19.02
2022-07-31T05:09:18.695Z,17.83
2022-07-31T05:11:47.226Z,18.05
2022-07-31T05:14:15.354Z,18.17
2022-07-31T05:16:42.216Z,19.42
2022-07-31T05:19:13.818Z,20.08
2022-07-31T05:21:47.119Z,19.27
2022-07-31T05:24:33.093Z,18.67
2022-07-31T05:27:01.490Z,19.70
2022-07-31T05:29:27.974Z,21.15
2022-07-31T05:31:59.407Z,21.92
2022-07-31T05:34:29.205Z,23.15
2022-07-31T05:36:56.728Z,23.17
2022-07-31T05:39:25.055Z,26.63
2022-07-31T05:41:52.695Z,27.80
2022-07-31T05:44:19.109Z,30.73
2022-07-31T05:46:45.591Z,32.60
2022-07-31T05:49:12.090Z,37.20
2022-07-31T05:51:38.595Z,38.20
2022-07-31T05:54:05.076Z,41.58
2022-07-31T05:56:31.504Z,47.00
2022-07-31T05:58:58.008Z,48.13
2022-07-31T06:01:24.459Z,52.70
2022-07-31T06:03:51.914Z,56.13
2022-07-31T06:06:19.294Z,62.30
2022-07-31T06:08:45.739Z,58.22
2022-07-31T06:11:12.191Z,52.15
2022-07-31T06:13:38.857Z,48.15
2022-07-31T06:16:11.978Z,49.70
2022-07-31T06:18:38.486Z,49.60
2022-07-31T06:21:04.908Z,54.80
2022-07-31T06:23:32.412Z,54.38
2022-07-31T06:25:59.199Z,61.10
2022-07-31T06:28:47.476Z,71.13
2022-07-31T06:31:19.939Z,59.50
2022-07-31T06:36:15.735Z,57.35
2022-07-31T06:38:42.172Z,65.80
2022-07-31T06:41:08.603Z,64.47
2022-07-31T06:43:35.045Z,79.55
2022-07-31T06:46:01.519Z,79.57
2022-07-31T06:48:28.399Z,75.57
2022-07-31T06:51:14.470Z,69.43
2022-07-31T06:53:41.489Z,62.10
2022-07-31T06:56:07.924Z,68.57
2022-07-31T06:58:34.437Z,78.05
2022-07-31T07:01:00.975Z,68.20
2022-07-31T07:03:27.414Z,84.43
2022-07-31T07:05:53.851Z,91.57
2022-07-31T07:08:20.249Z,86.70
2022-07-31T07:10:46.902Z,86.68
2022-07-31T07:13:13.324Z,90.80
2022-07-31T07:15:39.742Z,98.70
2022-07-31T07:18:06.938Z,95.22
2022-07-31T07:20:33.580Z,90.38
2022-07-31T07:23:00.125Z,84.13
2022-07-31T07:25:26.553Z,96.18
2022-07-31T07:27:53.738Z,85.30
2022-07-31T07:30:20.334Z,77.80
2022-07-31T07:32:46.743Z,81.45
2022-07-31T07:35:13.484Z,81.80
2022-07-31T07:37:40.902Z,79.35
2022-07-31T07:40:08.746Z,79.40
2022-07-31T07:42:35.503Z,83.13
2022-07-31T07:45:02.811Z,86.50
2022-07-31T07:48:05.770Z,82.90
2022-07-31T07:50:19.582Z,76.88
2022-07-31T07:52:46.200Z,84.35
2022-07-31T07:55:12.739Z,79.28
2022-07-31T07:57:40.171Z,72.80
2022-07-31T08:00:09.566Z,84.03
2022-07-31T08:02:36.449Z,86.38
2022-07-31T08:05:03.063Z,70.65
2022-07-31T08:07:42.176Z,70.80
2022-07-31T08:10:10.285Z,69.25
2022-07-31T08:12:37.184Z,64.22
2022-07-31T08:15:05.527Z,67.32
2022-07-31T08:17:31.951Z,66.35
2022-07-31T08:19:58.373Z,69.65
2022-07-31T08:22:24.836Z,80.60
2022-07-31T08:24:51.388Z,64.32
2022-07-31T08:27:24.022Z,64.15
2022-07-31T08:30:07.079Z,62.10
2022-07-31T08:32:33.593Z,58.97
2022-07-31T08:35:00.119Z,55.63
2022-07-31T08:38:02.710Z,52.15
2022-07-31T08:40:13.142Z,49.72
2022-07-31T08:42:39.650Z,45.35
2022-07-31T08:45:08.099Z,40.15
2022-07-31T08:47:36.137Z,40.13
2022-07-31T08:50:05.532Z,42.25
2022-07-31T08:52:34.703Z,36.80
2022-07-31T08:55:06.870Z,40.20
2022-07-31T08:57:34.219Z,38.00
2022-07-31T09:00:00.628Z,46.67
2022-07-31T09:02:27.102Z,44.00
2022-07-31T09:04:54.618Z,38.65
2022-07-31T09:07:21.026Z,40.50
2022-07-31T09:09:51.148Z,33.38
2022-07-31T09:12:38.990Z,39.47
2022-07-31T09:15:19.729Z,33.20
2022-07-31T09:17:53.894Z,35.55
2022-07-31T09:20:33.103Z,39.28
2022-07-31T09:23:08.054Z,40.90
2022-07-31T09:25:34.827Z,34.60
2022-07-31T09:28:06.444Z,40.45
2022-07-31T09:30:34.159Z,39.95
2022-07-31T09:33:19.040Z,29.50
2022-07-31T09:35:52.730Z,30.38
2022-07-31T09:38:20.559Z,31.73
2022-07-31T09:40:55.167Z,30.13
2022-07-31T09:43:31.806Z,27.42
2022-07-31T09:45:59.933Z,28.02
2022-07-31T09:48:28.812Z,30.10
2022-07-31T09:51:04.606Z,34.42
2022-07-31T09:53:53.496Z,30.52
2022-07-31T09:56:35.994Z,31.48
2022-07-31T09:59:03.173Z,36.15
2022-07-31T10:01:30.920Z,37.80
2022-07-31T10:04:00.567Z,39.58
2022-07-31T10:06:31.617Z,39.17
2022-07-31T10:08:59.942Z,36.58
2022-07-31T10:11:27.915Z,38.45
2022-07-31T10:13:57.035Z,33.83
2022-07-31T10:16:27.369Z,39.70
2022-07-31T10:18:59.521Z,40.17
2022-07-31T10:21:32.221Z,41.45
2022-07-31T10:24:00.663Z,38.65
2022-07-31T10:26:50.746Z,35.58
2022-07-31T10:29:17.562Z,34.58
2022-07-31T10:31:46.233Z,30.83
2022-07-31T10:34:15.545Z,33.20
2022-07-31T10:36:44.997Z,27.85
2022-07-31T10:39:49.279Z,25.10
2022-07-31T10:42:19.629Z,29.10
2022-07-31T10:44:55.418Z,29.33
2022-07-31T10:47:22.151Z,28.70
2022-07-31T10:49:49.741Z,29.40
2022-07-31T10:52:37.168Z,29.05
2022-07-31T10:55:27.274Z,26.33
2022-07-31T10:57:57.163Z,25.63
2022-07-31T11:00:28.353Z,25.33
2022-07-31T11:02:56.979Z,24.40
2022-07-31T11:05:24.548Z,27.77
2022-07-31T11:08:05.430Z,28.33
2022-07-31T11:10:34.120Z,27.70
2022-07-31T11:13:08.869Z,25.77
2022-07-31T11:15:37.407Z,34.03
2022-07-31T11:18:24.888Z,26.42
2022-07-31T11:21:13.326Z,27.42
2022-07-31T11:23:56.093Z,26.30
2022-07-31T11:26:32.805Z,26.70
2022-07-31T11:30:00.452Z,28.23
2022-07-31T11:31:58.633Z,27.17
2022-07-31T11:34:26.019Z,26.85
2022-07-31T11:36:52.536Z,31.02
2022-07-31T11:39:19.014Z,27.77
2022-07-31T11:41:52.563Z,36.20
2022-07-31T11:44:22.173Z,30.23
2022-07-31T11:46:51.195Z,28.77
2022-07-31T11:49:47.959Z,27.88
2022-07-31T11:52:30.799Z,30.48
2022-07-31T11:55:10.027Z,27.75
2022-07-31T11:57:52.423Z,30.20
2022-07-31T12:00:29.250Z,32.20
2022-07-31T12:02:57.658Z,30.00
2022-07-31T12:05:38.845Z,29.35
2022-07-31T12:08:07.737Z,27.02
2022-07-31T12:10:34.876Z,26.80
2022-07-31T12:13:02.347Z,45.28
2022-07-31T12:15:28.811Z,52.80
2022-07-31T12:18:08.108Z,52.30
2022-07-31T12:20:36.506Z,50.35
2022-07-31T12:23:05.690Z,58.50
2022-07-31T12:25:43.227Z,43.30
2022-07-31T12:28:10.148Z,49.38
2022-07-31T12:30:36.849Z,44.05
2022-07-31T12:33:08.041Z,41.67
2022-07-31T12:35:55.655Z,52.72
2022-07-31T12:38:40.760Z,54.67
2022-07-31T12:41:08.150Z,51.47
2022-07-31T12:43:37.631Z,44.88
2022-07-31T12:46:06.857Z,56.13
2022-07-31T12:48:38.593Z,55.95
2022-07-31T12:51:06.725Z,45.07
2022-07-31T12:53:33.218Z,49.70
2022-07-31T12:55:59.593Z,48.15
2022-07-31T12:58:26.028Z,48.38
2022-07-31T13:00:54.696Z,39.83
2022-07-31T13:03:21.398Z,37.33
2022-07-31T13:05:51.752Z,48.50
2022-07-31T13:08:18.652Z,47.08
2022-07-31T13:10:46.098Z,61.22
2022-07-31T13:13:12.617Z,52.33
2022-07-31T13:15:39.201Z,36.70
2022-07-31T13:18:05.792Z,44.55
2022-07-31T13:20:32.824Z,24.45
2022-07-31T13:22:59.592Z,46.10
2022-07-31T13:25:28.357Z,36.42
2022-07-31T13:27:54.771Z,65.18
2022-07-31T13:30:21.179Z,29.48
2022-07-31T13:32:47.611Z,29.15
2022-07-31T13:35:25.970Z,29.27
2022-07-31T13:37:55.217Z,23.30
2022-07-31T13:40:40.413Z,30.10
2022-07-31T13:43:06.877Z,39.17
2022-07-31T13:45:33.264Z,50.88
2022-07-31T13:48:00.989Z,47.03
2022-07-31T13:50:28.836Z,44.17
2022-07-31T13:52:57.648Z,50.47
2022-07-31T13:55:25.443Z,46.75
2022-07-31T13:57:52.375Z,51.00
2022-07-31T14:00:21.986Z,46.42
2022-07-31T14:02:49.964Z,25.10
2022-07-31T14:05:16.635Z,18.42
2022-07-31T14:07:48.212Z,18.85
2022-07-31T14:10:20.575Z,28.38
2022-07-31T14:12:47.988Z,21.83
2022-07-31T14:15:14.570Z,27.83
2022-07-31T14:17:41.035Z,24.95
2022-07-31T14:20:08.122Z,39.03
2022-07-31T14:22:34.769Z,32.17
2022-07-31T14:25:01.198Z,33.65
2022-07-31T14:27:27.677Z,48.95
2022-07-31T14:29:54.162Z,50.72
2022-07-31T14:32:22.012Z,46.10
2022-07-31T14:34:51.608Z,39.25
2022-07-31T14:37:18.475Z,46.72
2022-07-31T14:39:44.976Z,43.38
2022-07-31T14:42:12.337Z,42.50
2022-07-31T14:44:41.867Z,38.17
2022-07-31T14:47:10.404Z,45.33
2022-07-31T14:50:08.996Z,36.67
2022-07-31T14:52:23.846Z,35.85
2022-07-31T14:54:50.398Z,35.25
2022-07-31T14:57:20.129Z,36.13
2022-07-31T14:59:49.897Z,44.05
2022-07-31T15:02:21.450Z,45.50
2022-07-31T15:04:48.892Z,36.72
2022-07-31T15:07:34.346Z,36.65
2022-07-31T15:10:04.120Z,36.00
2022-07-31T15:12:30.628Z,48.78
2022-07-31T15:14:57.074Z,56.10
2022-07-31T15:17:23.676Z,51.60
2022-07-31T15:19:50.374Z,44.72
2022-07-31T15:22:19.710Z,50.40
2022-07-31T15:24:49.629Z,49.90
2022-07-31T15:27:21.549Z,45.25
2022-07-31T15:30:00.440Z,54.08
2022-07-31T15:32:33.746Z,22.02
2022-07-31T15:35:00.247Z,17.25
2022-07-31T15:37:26.705Z,20.15
2022-07-31T15:40:02.824Z,18.70
2022-07-31T15:42:32.017Z,17.80
2022-07-31T15:44:58.822Z,26.80
2022-07-31T15:47:25.421Z,44.78
2022-07-31T15:49:51.821Z,40.80
2022-07-31T15:52:19.288Z,43.55
2022-07-31T15:54:46.702Z,31.50
2022-07-31T15:57:13.474Z,39.80
2022-07-31T15:59:39.997Z,36.08
2022-07-31T16:02:07.213Z,34.38
2022-07-31T16:04:34.851Z,33.22
2022-07-31T16:08:29.871Z,33.83
2022-07-31T16:10:14.857Z,32.28
2022-07-31T16:12:35.404Z,32.00
2022-07-31T16:15:02.452Z,32.38
2022-07-31T16:17:37.742Z,41.28
2022-07-31T16:20:07.058Z,48.67
2022-07-31T16:22:33.716Z,51.70
2022-07-31T16:25:00.107Z,45.90
2022-07-31T16:27:26.657Z,40.83
2022-07-31T16:29:59.404Z,53.13
2022-07-31T16:32:28.604Z,49.95
2022-07-31T16:34:58.476Z,52.60
2022-07-31T16:37:50.252Z,51.42
2022-07-31T16:40:28.682Z,49.17
2022-07-31T16:43:02.020Z,49.88
2022-07-31T16:45:29.645Z,50.85
2022-07-31T16:47:56.875Z,45.97
2022-07-31T16:50:23.754Z,47.78
2022-07-31T16:52:54.562Z,43.60
2022-07-31T16:55:51.669Z,47.78
2022-07-31T16:58:11.484Z,49.13
2022-07-31T17:00:39.271Z,46.63
2022-07-31T17:03:06.005Z,38.33
2022-07-31T17:05:32.467Z,47.88
2022-07-31T17:07:59.031Z,38.85
2022-07-31T17:10:26.188Z,29.77
2022-07-31T17:12:53.616Z,36.88
2022-07-31T17:15:20.688Z,32.00
2022-07-31T17:17:47.390Z,31.52
2022-07-31T17:20:14.981Z,28.27
2022-07-31T17:22:41.562Z,27.40
2022-07-31T17:25:09.830Z,25.55
2022-07-31T17:27:36.325Z,27.80
2022-07-31T17:30:03.476Z,24.77
2022-07-31T17:32:32.060Z,30.17
2022-07-31T17:34:58.460Z,32.35
2022-07-31T17:37:25.144Z,28.30
2022-07-31T17:39:55.169Z,30.30
2022-07-31T17:42:25.208Z,24.15
2022-07-31T17:44:55.263Z,29.90
2022-07-31T17:47:25.448Z,25.20
2022-07-31T17:49:52.905Z,22.92
2022-07-31T17:52:20.866Z,30.08
2022-07-31T17:54:47.928Z,28.42
2022-07-31T17:57:14.624Z,24.80
2022-07-31T17:59:43.292Z,25.92
2022-07-31T18:02:10.444Z,23.98
2022-07-31T18:04:37.632Z,25.10
2022-07-31T18:07:05.900Z,23.02
2022-07-31T18:09:33.089Z,22.27
2022-07-31T18:11:59.924Z,25.33
2022-07-31T18:14:26.497Z,23.77
2022-07-31T18:16:53.535Z,24.45
2022-07-31T18:19:21.772Z,21.40
2022-07-31T18:21:48.812Z,22.17
2022-07-31T18:24:15.282Z,20.73
2022-07-31T18:26:41.747Z,20.75
2022-07-31T18:29:08.259Z,21.25
2022-07-31T18:31:35.961Z,20.42
2022-07-31T18:34:04.823Z,20.42
2022-07-31T18:36:32.566Z,19.60
2022-07-31T18:38:59.027Z,18.60
2022-07-31T18:41:25.502Z,19.25
2022-07-31T18:43:52.045Z,19.17
2022-07-31T18:46:19.918Z,19.25
2022-07-31T18:48:46.471Z,18.92
2022-07-31T18:51:13.018Z,18.98
2022-07-31T18:53:39.469Z,20.23
2022-07-31T18:56:05.940Z,19.83
2022-07-31T18:58:32.388Z,20.20
2022-07-31T19:00:58.868Z,23.77
2022-07-31T19:03:26.264Z,32.10
2022-07-31T19:05:53.616Z,36.75
2022-07-31T19:08:20.452Z,40.03
2022-07-31T19:10:49.116Z,68.72
2022-07-31T19:13:19.065Z,88.32
2022-07-31T19:15:51.545Z,111.03
2022-07-31T19:18:20.408Z,124.63
2022-07-31T19:21:00.295Z,104.03
2022-07-31T19:23:41.558Z,117.63
2022-07-31T19:26:09.968Z,126.75
2022-07-31T19:28:36.701Z,96.55
2022-07-31T19:31:03.561Z,84.57
2022-07-31T19:33:30.117Z,77.25
2022-07-31T19:36:02.023Z,68.13
2022-07-31T19:38:33.058Z,69.90
2022-07-31T19:41:00.091Z,75.10
2022-07-31T19:43:26.800Z,85.65
2022-07-31T19:45:58.804Z,80.00
2022-07-31T19:48:39.575Z,87.88
2022-07-31T19:51:06.341Z,88.10
2022-07-31T19:53:32.759Z,81.28
2022-07-31T19:56:01.505Z,80.35
2022-07-31T19:58:27.929Z,78.45
2022-07-31T20:00:54.344Z,76.97
2022-07-31T20:03:20.837Z,83.13
2022-07-31T20:05:47.292Z,82.20
2022-07-31T20:08:13.686Z,87.18
2022-07-31T20:10:40.105Z,83.68
2022-07-31T20:13:06.491Z,91.55
2022-07-31T20:15:51.204Z,94.45
2022-07-31T20:18:27.404Z,94.75
2022-07-31T20:20:56.915Z,94.38
2022-07-31T20:23:23.782Z,79.03
2022-07-31T20:25:50.237Z,77.38
2022-07-31T20:28:16.850Z,82.75
2022-07-31T20:30:43.253Z,90.18
2022-07-31T20:33:11.140Z,84.47
2022-07-31T20:35:47.769Z,86.88
2022-07-31T20:38:16.651Z,82.30
2022-07-31T20:40:48.021Z,83.40
2022-07-31T20:43:21.055Z,92.38
2022-07-31T20:45:48.186Z,92.60
2022-07-31T20:48:17.575Z,93.85
2022-07-31T20:50:44.062Z,117.70
2022-07-31T20:53:14.615Z,115.97
2022-07-31T20:55:41.046Z,124.55
2022-07-31T20:58:07.473Z,110.28
2022-07-31T21:00:37.991Z,118.57
2022-07-31T21:03:05.819Z,97.60
2022-07-31T21:05:32.468Z,113.07
2022-07-31T21:07:58.998Z,101.53
2022-07-31T21:10:29.539Z,111.03
2022-07-31T21:12:56.716Z,100.65
2022-07-31T21:15:31.189Z,102.00
2022-07-31T21:18:11.283Z,101.53
2022-07-31T21:20:50.016Z,95.18
2022-07-31T21:23:23.822Z,96.28
2022-07-31T21:25:52.461Z,95.07
2022-07-31T21:28:19.388Z,95.85
2022-07-31T21:30:46.197Z,95.22
2022-07-31T21:33:12.687Z,94.40
2022-07-31T21:35:40.159Z,87.68
2022-07-31T21:38:12.154Z,90.65
2022-07-31T21:40:39.881Z,90.45
2022-07-31T21:43:06.715Z,93.07
2022-07-31T21:45:50.670Z,93.00
2022-07-31T21:48:22.287Z,90.25
2022-07-31T21:50:49.059Z,82.35
2022-07-31T21:53:15.694Z,76.28
2022-07-31T21:55:42.372Z,70.30
2022-07-31T21:58:09.268Z,69.63
2022-07-31T22:00:35.959Z,80.57
2022-07-31T22:03:02.894Z,83.88
2022-07-31T22:05:48.988Z,86.63
2022-07-31T22:08:16.333Z,81.55
2022-07-31T22:10:42.994Z,81.72
2022-07-31T22:13:09.641Z,81.00
2022-07-31T22:15:58.906Z,82.85
2022-07-31T22:18:22.819Z,72.35
2022-07-31T22:20:53.129Z,81.53
2022-07-31T22:23:19.804Z,77.95
2022-07-31T22:25:48.810Z,77.88
2022-07-31T22:28:18.680Z,67.47
2022-07-31T22:30:45.635Z,57.60
2022-07-31T22:33:12.279Z,59.67
2022-07-31T22:35:40.540Z,58.17
2022-07-31T22:38:07.805Z,54.63
2022-07-31T22:40:34.358Z,52.67
2022-07-31T22:43:02.581Z,53.30
2022-07-31T22:45:30.006Z,55.17
2022-07-31T22:47:57.402Z,60.83
2022-07-31T22:50:23.970Z,68.75
2022-07-31T22:52:50.395Z,62.58
2022-07-31T22:55:16.885Z,66.28
2022-07-31T22:57:46.264Z,69.03
2022-07-31T23:00:14.618Z,76.43
2022-07-31T23:02:42.149Z,75.90
2022-07-31T23:05:09.241Z,69.97
2022-07-31T23:07:35.773Z,71.28
2022-07-31T23:10:02.405Z,71.30
2022-07-31T23:12:29.481Z,74.68
2022-07-31T23:14:56.067Z,78.45
2022-07-31T23:17:23.522Z,75.13
2022-07-31T23:19:53.739Z,77.00
2022-07-31T23:22:33.190Z,80.75
2022-07-31T23:25:01.950Z,80.72
2022-07-31T23:27:28.515Z,81.10
2022-07-31T23:29:55.027Z,80.07
2022-07-31T23:32:21.528Z,71.20
2022-07-31T23:34:48.008Z,77.53
2022-07-31T23:37:14.519Z,73.10
2022-07-31T23:39:41.106Z,74.20
2022-07-31T23:42:26.174Z,76.93
2022-07-31T23:44:52.583Z,77.53
2022-07-31T23:47:19.168Z,72.22
2022-07-31T23:49:46.562Z,77.43
2022-07-31T23:52:12.990Z,73.97
2022-07-31T23:54:39.572Z,71.05
2022-07-31T23:57:06.027Z,72.75
2022-07-31T23:59:32.410Z,69.13
